createdAt,value
2022-10-01T00:00:29.880Z,60.53
2022-10-01T00:03:05.273Z,62.77
2022-10-01T00:05:45.765Z,60.37
2022-10-01T00:08:28.628Z,57.33
2022-10-01T00:11:05.999Z,61.87
2022-10-01T00:13:41.355Z,59.30
2022-10-01T00:16:20.965Z,55.30
2022-10-01T00:19:01.958Z,55.53
2022-10-01T00:21:42.448Z,56.60
2022-10-01T00:24:19.943Z,57.73
2022-10-01T00:26:56.810Z,57.53
2022-10-01T00:29:37.365Z,57.80
2022-10-01T00:32:14.953Z,56.90
2022-10-01T00:34:55.451Z,53.97
2022-10-01T00:37:40.669Z,60.33
2022-10-01T00:40:17.889Z,66.23
2022-10-01T00:42:54.324Z,71.17
2022-10-01T00:45:33.452Z,71.77
2022-10-01T00:48:16.587Z,75.77
2022-10-01T00:50:53.703Z,73.47
2022-10-01T00:53:36.190Z,68.10
2022-10-01T00:56:17.372Z,80.20
2022-10-01T00:59:02.297Z,78.83
2022-10-01T01:01:43.949Z,76.00
2022-10-01T01:04:29.752Z,72.63
2022-10-01T01:07:14.874Z,70.90
2022-10-01T01:09:57.876Z,70.83
2022-10-01T01:12:47.091Z,68.73
2022-10-01T01:15:29.319Z,70.67
2022-10-01T01:18:14.507Z,68.00
2022-10-01T01:21:21.249Z,68.07
2022-10-01T01:24:35.340Z,64.60
2022-10-01T01:27:29.969Z,63.57
2022-10-01T01:30:12.645Z,66.60
2022-10-01T01:32:58.916Z,66.53
2022-10-01T01:35:38.404Z,76.67
2022-10-01T01:38:18.328Z,72.90
2022-10-01T01:40:58.086Z,72.53
2022-10-01T01:43:37.628Z,73.77
2022-10-01T01:46:21.485Z,73.37
2022-10-01T01:49:00.179Z,77.30
2022-10-01T01:51:43.841Z,78.90
2022-10-01T01:54:20.111Z,79.93
2022-10-01T01:56:57.765Z,82.80
2022-10-01T01:59:45.215Z,75.97
2022-10-01T02:02:29.301Z,79.27
2022-10-01T02:05:13.612Z,81.00
2022-10-01T02:08:36.524Z,82.43
2022-10-01T02:11:30.254Z,78.80
2022-10-01T02:14:19.563Z,83.03
2022-10-01T02:17:03.761Z,78.33
2022-10-01T02:19:55.448Z,77.73
2022-10-01T02:22:48.953Z,78.00
2022-10-01T02:25:34.809Z,73.83
2022-10-01T02:28:19.939Z,76.03
2022-10-01T02:31:00.602Z,75.23
2022-10-01T02:33:39.708Z,73.30
2022-10-01T02:36:28.209Z,73.63
2022-10-01T02:39:07.934Z,68.70
2022-10-01T02:41:48.282Z,72.57
2022-10-01T02:44:39.277Z,74.07
2022-10-01T02:47:26.254Z,73.50
2022-10-01T02:50:06.425Z,69.40
2022-10-01T02:52:53.292Z,73.20
2022-10-01T02:55:36.026Z,70.73
2022-10-01T02:58:35.400Z,71.57
2022-10-01T03:01:15.030Z,69.30
2022-10-01T03:03:52.393Z,69.83
2022-10-01T03:06:29.591Z,71.17
2022-10-01T03:09:13.247Z,70.87
2022-10-01T03:11:51.447Z,65.93
2022-10-01T03:14:27.799Z,64.23
2022-10-01T03:17:12.945Z,66.83
2022-10-01T03:19:50.956Z,66.23
2022-10-01T03:22:33.225Z,62.93
2022-10-01T03:25:14.752Z,61.70
2022-10-01T03:28:04.951Z,62.37
2022-10-01T03:30:44.778Z,62.40
2022-10-01T03:33:24.214Z,60.97
2022-10-01T03:36:02.214Z,60.47
2022-10-01T03:38:52.179Z,57.77
2022-10-01T03:41:33.912Z,56.37
2022-10-01T03:44:15.847Z,63.30
2022-10-01T03:47:01.550Z,62.60
2022-10-01T03:49:44.608Z,60.57
2022-10-01T03:52:21.900Z,60.07
2022-10-01T03:55:03.974Z,59.47
2022-10-01T03:57:57.698Z,60.17
2022-10-01T04:00:38.434Z,58.15
2022-10-01T04:03:16.944Z,55.90
2022-10-01T04:05:59.277Z,57.17
2022-10-01T04:08:40.620Z,57.28
2022-10-01T04:11:30.904Z,56.93
2022-10-01T04:14:15.803Z,58.53
2022-10-01T04:16:54.292Z,56.93
2022-10-01T04:19:40.598Z,55.15
2022-10-01T04:22:28.666Z,58.88
2022-10-01T04:25:10.054Z,60.13
2022-10-01T04:27:48.541Z,57.03
2022-10-01T04:30:44.572Z,58.53
2022-10-01T04:33:53.746Z,56.60
2022-10-01T04:36:35.478Z,54.42
2022-10-01T04:39:25.216Z,59.08
2022-10-01T04:42:05.230Z,58.30
2022-10-01T04:44:49.440Z,57.08
2022-10-01T04:47:44.734Z,54.90
2022-10-01T04:50:34.330Z,57.90
2022-10-01T04:53:16.387Z,56.63
2022-10-01T04:56:03.120Z,56.85
2022-10-01T04:59:02.189Z,55.05
2022-10-01T05:01:39.623Z,56.15
2022-10-01T05:04:28.809Z,56.22
2022-10-01T05:07:08.900Z,52.50
2022-10-01T05:09:52.882Z,57.08
2022-10-01T05:12:36.661Z,55.20
2022-10-01T05:15:16.844Z,56.33
2022-10-01T05:17:56.303Z,51.88
2022-10-01T05:20:40.823Z,50.13
2022-10-01T05:23:34.264Z,51.85
2022-10-01T05:26:28.283Z,51.28
2022-10-01T05:29:12.468Z,51.05
2022-10-01T05:31:56.503Z,48.03
2022-10-01T05:34:34.136Z,49.97
2022-10-01T05:37:21.923Z,50.72
2022-10-01T05:40:01.579Z,53.70
2022-10-01T05:42:42.578Z,54.63
2022-10-01T05:45:29.077Z,51.55
2022-10-01T05:48:17.769Z,51.97
2022-10-01T05:50:57.535Z,48.22
2022-10-01T05:53:41.268Z,47.83
2022-10-01T05:56:21.741Z,45.25
2022-10-01T05:58:59.439Z,51.97
2022-10-01T06:01:46.439Z,49.33
2022-10-01T06:04:28.281Z,51.45
2022-10-01T06:07:05.455Z,48.67
2022-10-01T06:09:47.228Z,45.28
2022-10-01T06:12:28.843Z,43.22
2022-10-01T06:15:05.075Z,42.55
2022-10-01T06:17:46.447Z,43.42
2022-10-01T06:20:28.485Z,49.42
2022-10-01T06:23:13.761Z,48.90
2022-10-01T06:26:08.953Z,53.63
2022-10-01T06:28:50.748Z,52.88
2022-10-01T06:31:32.199Z,49.97
2022-10-01T06:34:14.498Z,47.88
2022-10-01T06:37:13.761Z,46.65
2022-10-01T06:39:51.127Z,51.47
2022-10-01T06:42:35.240Z,50.75
2022-10-01T06:45:11.855Z,46.50
2022-10-01T06:47:48.266Z,50.00
2022-10-01T06:50:27.545Z,53.60
2022-10-01T06:53:12.039Z,50.92
2022-10-01T06:56:01.388Z,51.95
2022-10-01T06:58:51.208Z,52.67
2022-10-01T07:01:29.223Z,52.45
2022-10-01T07:04:11.638Z,51.58
2022-10-01T07:07:01.149Z,48.58
2022-10-01T07:09:41.823Z,52.72
2022-10-01T07:12:21.169Z,44.00
2022-10-01T07:15:05.167Z,54.10
2022-10-01T07:17:52.403Z,51.45
2022-10-01T07:20:40.260Z,50.35
2022-10-01T07:23:23.762Z,52.25
2022-10-01T07:26:01.000Z,49.97
2022-10-01T07:28:46.864Z,52.58
2022-10-01T07:31:28.840Z,49.63
2022-10-01T07:34:09.045Z,47.45
2022-10-01T07:36:53.523Z,47.63
2022-10-01T07:39:31.051Z,46.60
2022-10-01T07:42:09.760Z,45.03
2022-10-01T07:44:49.333Z,46.72
2022-10-01T07:47:29.736Z,47.35
2022-10-01T07:50:21.178Z,47.90
2022-10-01T07:53:04.395Z,43.90
2022-10-01T07:55:42.658Z,48.70
2022-10-01T07:58:25.193Z,47.50
2022-10-01T08:01:09.366Z,45.20
2022-10-01T08:03:57.410Z,46.83
2022-10-01T08:06:40.355Z,48.25
2022-10-01T08:09:28.703Z,45.80
2022-10-01T08:12:18.364Z,49.05
2022-10-01T08:14:58.900Z,46.08
2022-10-01T08:17:39.236Z,44.45
2022-10-01T08:20:25.871Z,43.05
2022-10-01T08:23:09.727Z,45.28
2022-10-01T08:25:49.426Z,42.50
2022-10-01T08:28:29.811Z,40.88
2022-10-01T08:31:11.640Z,43.30
2022-10-01T08:33:54.639Z,42.53
2022-10-01T08:36:37.172Z,42.88
2022-10-01T08:39:18.802Z,42.77
2022-10-01T08:42:05.363Z,42.30
2022-10-01T08:44:51.211Z,42.03
2022-10-01T08:47:36.851Z,43.70
2022-10-01T08:50:31.159Z,42.77
2022-10-01T08:53:27.040Z,41.87
2022-10-01T08:56:04.829Z,42.23
2022-10-01T08:58:55.501Z,42.50
2022-10-01T09:01:36.914Z,42.63
2022-10-01T09:04:19.120Z,44.53
2022-10-01T09:07:06.462Z,47.90
2022-10-01T09:10:15.486Z,47.43
2022-10-01T09:13:05.854Z,47.13
2022-10-01T09:15:47.180Z,43.77
2022-10-01T09:18:29.348Z,46.67
2022-10-01T09:21:22.392Z,49.23
2022-10-01T09:24:14.174Z,48.63
2022-10-01T09:26:55.253Z,48.17
2022-10-01T09:30:00.505Z,51.10
2022-10-01T09:32:45.361Z,49.97
2022-10-01T09:35:36.691Z,48.77
2022-10-01T09:38:27.157Z,50.07
2022-10-01T09:41:09.473Z,52.70
2022-10-01T09:43:53.470Z,50.27
2022-10-01T09:46:31.771Z,52.90
2022-10-01T09:49:14.818Z,51.63
2022-10-01T09:52:02.822Z,50.97
2022-10-01T09:54:47.022Z,52.43
2022-10-01T09:57:27.967Z,52.40
2022-10-01T10:00:20.569Z,51.80
2022-10-01T10:02:58.591Z,51.30
2022-10-01T10:05:51.098Z,52.87
2022-10-01T10:08:39.121Z,53.57
2022-10-01T10:11:25.127Z,50.87
2022-10-01T10:14:06.051Z,52.30
2022-10-01T10:16:54.771Z,51.87
2022-10-01T10:19:42.617Z,52.40
2022-10-01T10:22:35.076Z,51.80
2022-10-01T10:25:24.846Z,47.53
2022-10-01T10:28:04.162Z,47.10
2022-10-01T10:30:42.252Z,50.37
2022-10-01T10:33:24.933Z,49.03
2022-10-01T10:36:15.500Z,47.97
2022-10-01T10:39:00.275Z,50.03
2022-10-01T10:41:44.631Z,53.20
2022-10-01T10:44:27.227Z,50.93
2022-10-01T10:47:13.049Z,51.60
2022-10-01T10:49:57.478Z,49.87
2022-10-01T10:52:36.889Z,51.03
2022-10-01T10:55:30.359Z,52.20
2022-10-01T10:58:20.617Z,51.93
2022-10-01T11:01:05.934Z,50.50
2022-10-01T11:03:48.638Z,50.70
2022-10-01T11:06:32.319Z,52.20
2022-10-01T11:09:17.599Z,51.00
2022-10-01T11:12:01.484Z,51.30
2022-10-01T11:15:02.968Z,51.73
2022-10-01T11:18:10.792Z,50.53
2022-10-01T11:21:04.817Z,49.00
2022-10-01T11:24:16.085Z,52.23
2022-10-01T11:27:14.293Z,51.53
2022-10-01T11:30:03.704Z,50.27
2022-10-01T11:32:47.287Z,47.30
2022-10-01T11:35:51.007Z,46.70
2022-10-01T11:38:54.293Z,43.60
2022-10-01T11:41:39.644Z,42.33
2022-10-01T11:44:29.341Z,42.27
2022-10-01T11:47:15.017Z,41.10
2022-10-01T11:50:05.630Z,42.43
2022-10-01T11:52:51.045Z,41.63
2022-10-01T11:55:47.939Z,42.50
2022-10-01T11:58:49.756Z,43.30
2022-10-01T12:01:41.781Z,42.37
2022-10-01T12:04:40.377Z,43.97
2022-10-01T12:07:22.037Z,45.40
2022-10-01T12:10:14.420Z,46.80
2022-10-01T12:13:04.570Z,45.93
2022-10-01T12:15:49.890Z,47.23
2022-10-01T12:18:37.629Z,48.70
2022-10-01T12:21:20.919Z,47.63
2022-10-01T12:24:08.116Z,46.83
2022-10-01T12:26:52.866Z,46.67
2022-10-01T12:29:40.719Z,45.93
2022-10-01T12:32:29.058Z,46.17
2022-10-01T12:35:30.762Z,46.53
2022-10-01T12:38:32.928Z,47.07
2022-10-01T12:41:17.601Z,45.97
2022-10-01T12:44:13.814Z,45.93
2022-10-01T12:47:04.312Z,47.20
2022-10-01T12:49:52.017Z,46.60
2022-10-01T12:52:42.732Z,46.60
2022-10-01T12:56:02.165Z,45.77
2022-10-01T12:59:09.912Z,47.00
2022-10-01T13:02:11.319Z,45.93
2022-10-01T13:05:38.213Z,48.20
2022-10-01T13:08:45.289Z,48.03
2022-10-01T13:11:51.616Z,49.23
2022-10-01T13:14:59.301Z,51.03
2022-10-01T13:17:47.587Z,49.00
2022-10-01T13:20:34.108Z,50.70
2022-10-01T13:23:31.822Z,49.07
2022-10-01T13:26:18.798Z,48.03
2022-10-01T13:29:31.548Z,48.30
2022-10-01T13:32:51.500Z,46.23
2022-10-01T13:35:41.664Z,48.47
2022-10-01T13:38:37.845Z,49.20
2022-10-01T13:41:28.624Z,50.17
2022-10-01T13:44:15.460Z,48.60
2022-10-01T13:47:00.272Z,49.60
2022-10-01T13:49:45.832Z,49.63
2022-10-01T13:52:33.427Z,48.97
2022-10-01T13:55:45.186Z,52.47
2022-10-01T13:58:50.648Z,50.83
2022-10-01T14:01:55.329Z,51.60
2022-10-01T14:04:49.555Z,49.53
2022-10-01T14:07:32.158Z,50.67
2022-10-01T14:10:14.946Z,51.13
2022-10-01T14:13:10.149Z,50.73
2022-10-01T14:16:08.792Z,51.07
2022-10-01T14:18:50.032Z,50.93
2022-10-01T14:21:45.687Z,49.87
2022-10-01T14:24:48.631Z,51.87
2022-10-01T14:27:43.411Z,52.53
2022-10-01T14:30:25.593Z,51.90
2022-10-01T14:33:36.931Z,52.57
2022-10-01T14:36:37.387Z,53.27
2022-10-01T14:39:28.311Z,50.83
2022-10-01T14:42:20.460Z,53.20
2022-10-01T14:45:03.258Z,51.10
2022-10-01T14:47:50.284Z,51.83
2022-10-01T14:50:34.657Z,52.10
2022-10-01T14:53:18.267Z,52.13
2022-10-01T14:56:05.539Z,53.70
2022-10-01T14:59:01.272Z,52.80
2022-10-01T15:01:41.181Z,54.40
2022-10-01T15:04:41.542Z,55.27
2022-10-01T15:07:37.801Z,54.80
2022-10-01T15:10:33.821Z,54.67
2022-10-01T15:13:15.493Z,55.73
2022-10-01T15:16:00.988Z,56.57
2022-10-01T15:18:44.153Z,54.93
2022-10-01T15:21:55.507Z,57.23
2022-10-01T15:24:46.133Z,60.03
2022-10-01T15:27:30.716Z,58.20
2022-10-01T15:30:15.577Z,58.37
2022-10-01T15:33:03.036Z,59.13
2022-10-01T15:35:47.749Z,59.30
2022-10-01T15:38:34.951Z,58.40
2022-10-01T15:41:31.462Z,56.87
2022-10-01T15:44:13.634Z,58.37
2022-10-01T15:46:50.836Z,58.03
2022-10-01T15:49:33.339Z,59.57
2022-10-01T15:52:35.689Z,58.43
2022-10-01T15:55:47.833Z,58.07
2022-10-01T15:58:42.265Z,60.73
2022-10-01T16:01:22.308Z,58.77
2022-10-01T16:04:22.105Z,59.27
2022-10-01T16:07:41.946Z,59.43
2022-10-01T16:10:42.186Z,59.10
2022-10-01T16:13:59.839Z,59.20
2022-10-01T16:16:39.451Z,59.83
2022-10-01T16:19:42.311Z,57.40
2022-10-01T16:22:26.801Z,63.13
2022-10-01T16:25:04.663Z,58.20
2022-10-01T16:27:59.616Z,56.47
2022-10-01T16:30:42.547Z,57.77
2022-10-01T16:33:23.919Z,59.30
2022-10-01T16:36:22.565Z,58.23
2022-10-01T16:39:00.672Z,56.30
2022-10-01T16:41:38.868Z,55.30
2022-10-01T16:44:25.877Z,55.57
2022-10-01T16:47:08.626Z,56.70
2022-10-01T16:49:48.563Z,61.63
2022-10-01T16:52:33.228Z,55.93
2022-10-01T16:55:18.239Z,55.53
2022-10-01T16:57:59.778Z,56.13
2022-10-01T17:00:38.529Z,57.73
2022-10-01T17:03:28.655Z,55.50
2022-10-01T17:06:07.956Z,55.10
2022-10-01T17:08:48.491Z,53.53
2022-10-01T17:11:28.235Z,54.07
2022-10-01T17:14:04.501Z,54.07
2022-10-01T17:16:44.878Z,53.60
2022-10-01T17:19:24.676Z,56.73
2022-10-01T17:22:07.006Z,54.77
2022-10-01T17:24:48.755Z,54.77
2022-10-01T17:27:29.328Z,54.47
2022-10-01T17:30:07.411Z,51.50
2022-10-01T17:32:49.757Z,53.07
2022-10-01T17:35:31.241Z,51.43
2022-10-01T17:38:12.416Z,52.27
2022-10-01T17:40:56.638Z,52.93
2022-10-01T17:43:36.363Z,53.10
2022-10-01T17:46:17.536Z,52.53
2022-10-01T17:49:02.557Z,49.90
2022-10-01T17:51:43.970Z,51.93
2022-10-01T17:54:24.038Z,51.67
2022-10-01T17:57:00.343Z,52.33
2022-10-01T17:59:39.049Z,52.67
2022-10-01T18:02:40.969Z,51.33
2022-10-01T18:05:24.264Z,52.57
2022-10-01T18:08:00.974Z,51.83
2022-10-01T18:10:36.210Z,53.07
2022-10-01T18:13:25.448Z,51.80
2022-10-01T18:16:09.995Z,54.40
2022-10-01T18:19:51.948Z,55.57
2022-10-01T18:21:46.692Z,56.77
2022-10-01T18:24:26.246Z,57.70
2022-10-01T18:27:02.179Z,62.23
2022-10-01T18:29:37.884Z,63.00
2022-10-01T18:32:21.148Z,65.70
2022-10-01T18:35:00.315Z,68.23
2022-10-01T18:37:45.180Z,66.70
2022-10-01T18:40:25.017Z,68.53
2022-10-01T18:43:05.280Z,69.80
2022-10-01T18:46:01.709Z,71.90
2022-10-01T18:49:00.757Z,76.07
2022-10-01T18:51:53.314Z,81.07
2022-10-01T18:54:44.713Z,80.87
2022-10-01T18:57:35.106Z,81.23
2022-10-01T19:00:16.852Z,80.70
2022-10-01T19:03:23.944Z,84.00
2022-10-01T19:06:18.050Z,83.50
2022-10-01T19:09:06.681Z,84.57
2022-10-01T19:11:52.877Z,82.03
2022-10-01T19:15:02.306Z,84.20
2022-10-01T19:17:51.493Z,82.07
2022-10-01T19:20:46.052Z,84.17
2022-10-01T19:23:50.211Z,84.80
2022-10-01T19:26:32.311Z,85.33
2022-10-01T19:29:22.422Z,86.57
2022-10-01T19:31:59.712Z,86.00
2022-10-01T19:34:40.546Z,91.43
2022-10-01T19:37:20.894Z,89.13
2022-10-01T19:40:01.213Z,87.87
2022-10-01T19:42:41.025Z,88.20
2022-10-01T19:45:26.014Z,92.87
2022-10-01T19:48:11.248Z,92.97
2022-10-01T19:50:49.710Z,93.80
2022-10-01T19:53:29.668Z,93.10
2022-10-01T19:56:06.652Z,91.37
2022-10-01T19:58:40.702Z,93.80
2022-10-01T20:01:22.876Z,91.20
2022-10-01T20:04:04.979Z,91.57
2022-10-01T20:06:46.511Z,91.83
2022-10-01T20:09:29.212Z,92.00
2022-10-01T20:12:12.236Z,89.77
2022-10-01T20:15:15.965Z,90.40
2022-10-01T20:18:05.018Z,92.00
2022-10-01T20:20:44.839Z,95.33
2022-10-01T20:23:41.811Z,91.83
2022-10-01T20:26:26.398Z,92.93
2022-10-01T20:29:19.762Z,94.07
2022-10-01T20:32:04.402Z,94.70
2022-10-01T20:34:52.061Z,94.17
2022-10-01T20:37:40.860Z,92.23
2022-10-01T20:40:26.520Z,93.73
2022-10-01T20:43:07.247Z,95.90
2022-10-01T20:45:43.382Z,94.93
2022-10-01T20:48:22.559Z,93.60
2022-10-01T20:51:04.586Z,95.17
2022-10-01T20:53:43.217Z,96.27
2022-10-01T20:56:20.956Z,93.33
2022-10-01T20:59:00.378Z,95.30
2022-10-01T21:01:38.037Z,98.23
2022-10-01T21:04:19.534Z,99.73
2022-10-01T21:06:59.030Z,101.30
2022-10-01T21:09:39.008Z,98.73
2022-10-01T21:12:19.294Z,99.00
2022-10-01T21:14:58.380Z,98.40
2022-10-01T21:17:44.388Z,98.67
2022-10-01T21:20:34.918Z,96.83
2022-10-01T21:23:27.599Z,97.80
2022-10-01T21:26:16.427Z,96.37
2022-10-01T21:29:06.283Z,98.63
2022-10-01T21:31:49.791Z,98.27
2022-10-01T21:34:33.934Z,95.93
2022-10-01T21:37:14.321Z,95.57
2022-10-01T21:40:07.495Z,97.13
2022-10-01T21:42:52.591Z,98.10
2022-10-01T21:45:34.631Z,94.87
2022-10-01T21:48:28.815Z,95.87
2022-10-01T21:51:11.492Z,95.47
2022-10-01T21:54:06.501Z,98.37
2022-10-01T21:57:06.416Z,99.73
2022-10-01T22:00:04.736Z,101.23
2022-10-01T22:02:47.518Z,97.40
2022-10-01T22:05:30.520Z,100.43
2022-10-01T22:08:17.747Z,97.77
2022-10-01T22:10:54.853Z,95.93
2022-10-01T22:13:34.507Z,98.17
2022-10-01T22:16:12.527Z,99.87
2022-10-01T22:18:50.713Z,99.87
2022-10-01T22:21:29.244Z,99.10
2022-10-01T22:24:08.630Z,97.20
2022-10-01T22:26:47.256Z,98.23
2022-10-01T22:29:28.971Z,98.67
2022-10-01T22:32:06.505Z,101.77
2022-10-01T22:34:44.833Z,99.40
2022-10-01T22:37:24.826Z,99.90
2022-10-01T22:40:03.319Z,102.77
2022-10-01T22:42:41.579Z,98.43
2022-10-01T22:45:20.583Z,100.63
2022-10-01T22:48:13.855Z,102.57
2022-10-01T22:50:58.272Z,98.47
2022-10-01T22:53:46.178Z,102.90
2022-10-01T22:56:28.279Z,101.73
2022-10-01T22:59:11.978Z,101.63
2022-10-01T23:01:56.926Z,98.53
2022-10-01T23:04:51.614Z,97.93
2022-10-01T23:07:34.852Z,95.57
2022-10-01T23:10:14.545Z,98.10
2022-10-01T23:12:59.805Z,100.53
2022-10-01T23:15:42.857Z,94.03
2022-10-01T23:18:33.422Z,94.07
2022-10-01T23:21:21.200Z,96.77
2022-10-01T23:24:06.653Z,95.50
2022-10-01T23:26:50.722Z,97.53
2022-10-01T23:29:48.119Z,98.03
2022-10-01T23:32:39.609Z,97.30
2022-10-01T23:35:23.001Z,93.97
2022-10-01T23:38:13.492Z,92.90
2022-10-01T23:40:53.501Z,90.97
2022-10-01T23:43:34.052Z,90.97
2022-10-01T23:46:13.848Z,90.23
2022-10-01T23:48:53.095Z,93.83
2022-10-01T23:51:33.536Z,87.70
2022-10-01T23:54:16.824Z,88.13
2022-10-01T23:56:55.891Z,88.90
2022-10-01T23:59:36.825Z,85.60
